Time;durP1;ratioP1;P1;durP2;ratioP2;P2;SDS_P1;SDS_P2;PMS_P1;PMS_P2;Temp;Humidity;BMP_temperature;BMP_pressure;BME280_temperature;BME280_humidity;BME280_pressure;Samples;Min_cycle;Max_cycle;Signal;HPM_P1;HPM_P2
2023/12/09 00:03:30;;;;;;;;;;;;;;;;;;10247502;28;19959;-84
2023/12/09 00:08:30;;;;;;;;;;;;;;;;;;10232210;28;19950;-85
2023/12/09 00:13:31;;;;;;;;;;;;;;;;;;10222610;28;19934;-84
2023/12/09 00:18:34;;;;;;;;;;;;;;;;;;10235626;28;19945;-84
2023/12/09 00:23:34;;;;;;;;;;;;;;;;;;10229485;28;19925;-83
2023/12/09 00:28:35;;;;;;;;;;;;;;;;;;10233271;28;19918;-84
2023/12/09 00:33:36;;;;;;;;;;;;;;;;;;10236855;28;19978;-86
2023/12/09 00:38:36;;;;;;;;;;;;;;;;;;10223236;28;20014;-84
2023/12/09 00:43:38;;;;;;;;;;;;;;;;;;10219699;28;19956;-86
2023/12/09 00:48:38;;;;;;;;;;;;;;;;;;10269697;23;20013;-90
2023/12/09 00:53:38;;;;;;;;;;;;;;;;;;10210814;28;19958;-89
2023/12/09 00:58:39;;;;;;;;;;;;;;;;;;10219335;28;20326;-88
2023/12/09 01:03:47;;;;;;;;;;;;;;;;;;10201339;28;19997;-89
2023/12/09 01:08:50;;;;;;;;;;;;;;;;;;10233926;28;19925;-88
2023/12/09 01:13:51;;;;;;;;;;;;;;;;;;10293396;28;19914;-88
2023/12/09 01:18:57;;;;;;;;;;;;;;;;;;10282430;28;20401;-89
2023/12/09 01:24:27;;;;;;;;;;;;;;;;;;10241911;28;19974;-91
2023/12/09 01:29:27;;;;;;;;;;;;;;;;;;10214215;28;19923;-88
2023/12/09 01:34:27;;;;;;;;;;;;;;;;;;10165609;29;19940;-89
2023/12/09 01:39:28;;;;;;;;;;;;;;;;;;10144863;28;19943;-88
2023/12/09 01:44:28;;;;;;;;;;;;;;;;;;10187591;29;19946;-88
2023/12/09 01:49:28;;;;;;;;;;;;;;;;;;10217227;28;19931;-88
2023/12/09 01:54:28;;;;;;;;;;;;;;;;;;10209079;28;19966;-92
2023/12/09 01:59:29;;;;;;;;;;;;;;;;;;10195094;28;19926;-91
2023/12/09 02:04:29;;;;;;;;;;;;;;;;;;10232385;28;19915;-94
2023/12/09 02:09:32;;;;;;;;;;;;;;;;;;10193814;28;19934;-91
2023/12/09 02:14:37;;;;;;;;;;;;;;;;;;10193597;28;20022;-91
2023/12/09 02:19:39;;;;;;;;;;;;;;;;;;10166647;28;20039;-88
2023/12/09 02:24:44;;;;;;;;;;;;;;;;;;10191540;28;19956;-89
2023/12/09 02:29:45;;;;;;;;;;;;;;;;;;10182910;29;19961;-88
2023/12/09 02:34:47;;;;;;;;;;;;;;;;;;10162857;28;20090;-87
2023/12/09 02:39:49;;;;;;;;;;;;;;;;;;10165584;28;19931;-89
2023/12/09 02:44:57;;;;;;;;;;;;;;;;;;10208081;28;19926;-89
2023/12/09 02:50:32;;;;;;;;;;;;;;;;;;10233564;28;19981;-92
2023/12/09 02:55:49;;;;;;;;;;;;;;;;;;10374183;28;19921;-82
2023/12/09 03:00:50;;;;;;;;;;;;;;;;;;10356059;28;19925;-82
2023/12/09 03:06:34;;;;;;;;;;;;;;;;;;10296056;28;19946;-81
2023/12/09 03:11:34;;;;;;;;;;;;;;;;;;10328598;28;19922;-81
2023/12/09 03:16:35;;;;;;;;;;;;;;;;;;10330884;28;19922;-84
2023/12/09 03:21:35;;;;;;;;;;;;;;;;;;10341277;28;19917;-83
2023/12/09 03:26:36;;;;;;;;;;;;;;;;;;10343783;28;19961;-83
2023/12/09 03:31:36;;;;;;;;;;;;;;;;;;10321105;28;19921;-85
2023/12/09 03:36:38;;;;;;;;;;;;;;;;;;10290538;28;21024;-84
2023/12/09 03:41:40;;;;;;;;;;;;;;;;;;10275602;28;20052;-85
2023/12/09 03:46:40;;;;;;;;;;;;;;;;;;10301821;28;20017;-86
2023/12/09 03:51:42;;;;;;;;;;;;;;;;;;10316690;28;19941;-85
2023/12/09 03:56:42;;;;;;;;;;;;;;;;;;10305979;28;19961;-82
2023/12/09 04:01:43;;;;;;;;;;;;;;;;;;10370233;28;19917;-80
2023/12/09 04:06:46;;;;;;;;;;;;;;;;;;10379556;28;19965;-82
2023/12/09 04:11:50;;;;;;;;;;;;;;;;;;10380077;23;20220;-91
2023/12/09 04:16:51;;;;;;;;;;;;;;;;;;10283027;28;19937;-92
2023/12/09 04:21:57;;;;;;;;;;;;;;;;;;10277177;28;20295;-88
2023/12/09 04:27:04;;;;;;;;;;;;;;;;;;10223885;28;19921;-89
2023/12/09 04:32:05;;;;;;;;;;;;;;;;;;10299356;28;20000;-90
2023/12/09 04:37:24;;;;;;;;;;;;;;;;;;10348110;28;19922;-91
2023/12/09 04:42:25;;;;;;;;;;;;;;;;;;10288113;28;19917;-88
2023/12/09 04:47:40;;;;;;;;;;;;;;;;;;10256758;28;20439;-89
2023/12/09 04:52:45;;;;;;;;;;;;;;;;;;10243295;28;19929;-88
2023/12/09 04:57:47;;;;;;;;;;;;;;;;;;10239285;28;19933;-88
2023/12/09 05:02:48;;;;;;;;;;;;;;;;;;10282736;28;19913;-91
2023/12/09 05:07:49;;;;;;;;;;;;;;;;;;10288473;28;19961;-88
2023/12/09 05:12:51;;;;;;;;;;;;;;;;;;10269599;28;19911;-89
2023/12/09 05:17:56;;;;;;;;;;;;;;;;;;10280610;28;19930;-86
2023/12/09 05:22:57;;;;;;;;;;;;;;;;;;10204316;28;19926;-87
2023/12/09 05:27:57;;;;;;;;;;;;;;;;;;10250718;28;20422;-89
2023/12/09 05:33:00;;;;;;;;;;;;;;;;;;10293698;28;19910;-91
2023/12/09 05:38:05;;;;;;;;;;;;;;;;;;10279297;28;19923;-87
2023/12/09 05:43:28;;;;;;;;;;;;;;;;;;10251559;28;19927;-88
2023/12/09 05:48:28;;;;;;;;;;;;;;;;;;10266009;28;19941;-88
2023/12/09 05:53:29;;;;;;;;;;;;;;;;;;10283952;28;19939;-89
2023/12/09 05:58:31;;;;;;;;;;;;;;;;;;10270641;28;19953;-89
2023/12/09 06:03:32;;;;;;;;;;;;;;;;;;10291352;28;19922;-89
2023/12/09 06:08:36;;;;;;;;;;;;;;;;;;10188670;28;19996;-87
2023/12/09 06:13:38;;;;;;;;;;;;;;;;;;10267275;28;19940;-88
2023/12/09 06:18:44;;;;;;;;;;;;;;;;;;10211981;28;19985;-87
2023/12/09 06:23:47;;;;;;;;;;;;;;;;;;10291903;28;19933;-88
2023/12/09 06:34:21;;;;;;;;;;;;;;;;;;10252524;28;19918;-90
2023/12/09 06:39:44;;;;;;;;;;;;;;;;;;10283924;28;19933;-89
2023/12/09 06:44:49;;;;;;;;;;;;;;;;;;10301895;28;19934;-90
2023/12/09 06:49:50;;;;;;;;;;;;;;;;;;10325432;28;19914;-92
2023/12/09 06:54:51;;;;;;;;;;;;;;;;;;10292003;28;19920;-90
2023/12/09 07:05:47;;;;;;;;;;;;;;;;;;10540842;23;19965;-82
2023/12/09 07:10:47;;;;;;;;;;;;;;;;;;10337274;28;19925;-79
2023/12/09 07:15:48;;;;;;;;;;;;;;;;;;10373356;28;20072;-82
2023/12/09 07:20:48;;;;;;;;;;;;;;;;;;10319719;28;19925;-81
2023/12/09 07:25:48;;;;;;;;;;;;;;;;;;10280392;28;19948;-83
2023/12/09 07:30:49;;;;;;;;;;;;;;;;;;10334906;28;20805;-82
2023/12/09 07:35:49;;;;;;;;;;;;;;;;;;10285656;28;19930;-83
2023/12/09 07:40:49;;;;;;;;;;;;;;;;;;10260547;28;19918;-86
2023/12/09 07:45:49;;;;;;;;;;;;;;;;;;10300002;28;20351;-86
2023/12/09 07:50:50;;;;;;;;;;;;;;;;;;10275565;28;19921;-83
2023/12/09 07:55:51;;;;;;;;;;;;;;;;;;10300289;28;19930;-84
2023/12/09 08:00:52;;;;;;;;;;;;;;;;;;10276939;28;19927;-86
2023/12/09 08:05:55;;;;;;;;;;;;;;;;;;10300496;28;19926;-82
2023/12/09 08:16:30;;;;;;;;;;;;;;;;;;10234334;28;19930;-90
2023/12/09 08:21:32;;;;;;;;;;;;;;;;;;10232586;28;19938;-88
2023/12/09 08:26:35;;;;;;;;;;;;;;;;;;10262006;28;19907;-91
2023/12/09 08:31:38;;;;;;;;;;;;;;;;;;10236192;28;19914;-90
2023/12/09 08:36:40;;;;;;;;;;;;;;;;;;10247482;28;20269;-91
2023/12/09 08:41:42;;;;;;;;;;;;;;;;;;10266707;28;19914;-89
2023/12/09 08:46:45;;;;;;;;;;;;;;;;;;10218279;28;19926;-90
2023/12/09 08:51:46;;;;;;;;;;;;;;;;;;10193082;28;19935;-88
2023/12/09 08:56:48;;;;;;;;;;;;;;;;;;10220546;28;19977;-89
2023/12/09 09:01:49;;;;;;;;;;;;;;;;;;10258276;28;19914;-90
2023/12/09 09:06:50;;;;;;;;;;;;;;;;;;10254862;28;19906;-91
2023/12/09 09:11:52;;;;;;;;;;;;;;;;;;10251301;28;19938;-90
2023/12/09 09:16:53;;;;;;;;;;;;;;;;;;10187249;29;19938;-90
2023/12/09 09:21:55;;;;;;;;;;;;;;;;;;10272124;23;19940;-90
2023/12/09 09:27:16;;;;;;;;;;;;;;;;;;10282793;28;19926;-89
2023/12/09 09:32:19;;;;;;;;;;;;;;;;;;10228141;28;19922;-91
2023/12/09 09:37:23;;;;;;;;;;;;;;;;;;10300976;28;19914;-94
2023/12/09 09:42:32;;;;;;;;;;;;;;;;;;10295159;28;20020;-91
2023/12/09 09:47:52;;;;;;;;;;;;;;;;;;10249865;28;19952;-90
2023/12/09 09:52:59;;;;;;;;;;;;;;;;;;10259758;28;19925;-90
2023/12/09 09:58:03;;;;;;;;;;;;;;;;;;10279651;28;19926;-94
2023/12/09 10:09:27;;;;;;;;;;;;;;;;;;10289489;28;19949;-94
2023/12/09 10:14:33;;;;;;;;;;;;;;;;;;10298831;28;19925;-92
2023/12/09 10:19:35;;;;;;;;;;;;;;;;;;10271275;28;19930;-90
2023/12/09 10:24:35;;;;;;;;;;;;;;;;;;10333054;23;19929;-87
2023/12/09 10:29:35;;;;;;;;;;;;;;;;;;10330597;28;19918;-89
2023/12/09 10:34:38;;;;;;;;;;;;;;;;;;10337106;28;19973;-86
2023/12/09 10:39:38;;;;;;;;;;;;;;;;;;10470402;23;20024;-85
2023/12/09 10:44:39;;;;;;;;;;;;;;;;;;10303009;28;20393;-88
2023/12/09 10:49:40;;;;;;;;;;;;;;;;;;10279593;28;19926;-88
2023/12/09 10:54:40;;;;;;;;;;;;;;;;;;10661659;23;19935;-86
2023/12/09 10:59:40;;;;;;;;;;;;;;;;;;10480272;23;19967;-88
2023/12/09 11:04:41;;;;;;;;;;;;;;;;;;10414611;28;20015;-84
2023/12/09 11:09:41;;;;;;;;;;;;;;;;;;10837857;23;19913;-85
2023/12/09 11:14:43;;;;;;;;;;;;;;;;;;10375639;28;20053;-84
2023/12/09 11:19:45;;;;;;;;;;;;;;;;;;10362628;28;19976;-83
2023/12/09 11:24:45;;;;;;;;;;;;;;;;;;10344575;28;19926;-84
2023/12/09 11:29:45;;;;;;;;;;;;;;;;;;10353099;28;20024;-83
2023/12/09 11:34:47;;;;;;;;;;;;;;;;;;10324527;28;20837;-85
2023/12/09 11:39:48;;;;;;;;;;;;;;;;;;10521283;23;19932;-83
2023/12/09 11:44:49;;;;;;;;;;;;;;;;;;10820360;23;19981;-84
2023/12/09 11:49:53;;;;;;;;;;;;;;;;;;10390378;28;19944;-86
2023/12/09 11:54:53;;;;;;;;;;;;;;;;;;10374452;28;19920;-84
2023/12/09 11:59:54;;;;;;;;;;;;;;;;;;10505066;23;19928;-84
2023/12/09 12:04:57;;;;;;;;;;;;;;;;;;10372862;28;19925;-86
2023/12/09 12:09:57;;;;;;;;;;;;;;;;;;10377256;28;19928;-84
2023/12/09 12:14:58;;;;;;;;;;;;;;;;;;10361312;28;19910;-82
2023/12/09 12:19:58;;;;;;;;;;;;;;;;;;10676822;23;19976;-81
2023/12/09 12:24:58;;;;;;;;;;;;;;;;;;10348525;28;19906;-83
2023/12/09 12:29:59;;;;;;;;;;;;;;;;;;10729028;23;1807043;-84
2023/12/09 12:35:01;;;;;;;;;;;;;;;;;;10800837;23;19922;-87
2023/12/09 12:40:02;;;;;;;;;;;;;;;;;;10309087;28;20020;-86
2023/12/09 12:45:04;;;;;;;;;;;;;;;;;;10504346;23;19941;-86
2023/12/09 12:50:04;;;;;;;;;;;;;;;;;;10355739;28;19929;-85
2023/12/09 12:55:06;;;;;;;;;;;;;;;;;;10350033;28;19944;-90
2023/12/09 13:00:07;;;;;;;;;;;;;;;;;;11116189;23;19937;-84
2023/12/09 13:05:07;;;;;;;;;;;;;;;;;;10371137;28;20029;-83
2023/12/09 13:10:08;;;;;;;;;;;;;;;;;;10366795;28;19929;-85
2023/12/09 13:15:09;;;;;;;;;;;;;;;;;;10378329;28;19989;-86
2023/12/09 13:20:09;;;;;;;;;;;;;;;;;;10347628;28;19921;-86
2023/12/09 13:25:10;;;;;;;;;;;;;;;;;;10706961;23;19923;-85
2023/12/09 13:30:10;;;;;;;;;;;;;;;;;;10374975;28;19935;-82
2023/12/09 13:35:10;;;;;;;;;;;;;;;;;;10320781;28;19945;-84
2023/12/09 13:40:13;;;;;;;;;;;;;;;;;;10307614;28;19982;-85
2023/12/09 13:45:15;;;;;;;;;;;;;;;;;;10287431;28;19929;-84
2023/12/09 13:50:16;;;;;;;;;;;;;;;;;;10304636;28;19906;-87
2023/12/09 13:55:17;;;;;;;;;;;;;;;;;;10412837;23;19933;-84
2023/12/09 14:00:17;;;;;;;;;;;;;;;;;;10370545;28;19925;-84
2023/12/09 14:05:17;;;;;;;;;;;;;;;;;;10324597;28;20002;-84
2023/12/09 14:10:18;;;;;;;;;;;;;;;;;;10355916;28;19929;-84
2023/12/09 14:15:18;;;;;;;;;;;;;;;;;;10319836;28;20017;-84
2023/12/09 14:20:19;;;;;;;;;;;;;;;;;;10378478;23;19922;-83
2023/12/09 14:25:19;;;;;;;;;;;;;;;;;;10405756;23;20151;-84
2023/12/09 14:35:53;;;;;;;;;;;;;;;;;;10237463;28;19915;-83
2023/12/09 14:40:53;;;;;;;;;;;;;;;;;;10203598;28;19923;-87
2023/12/09 14:45:53;;;;;;;;;;;;;;;;;;10174135;29;19923;-83
2023/12/09 14:50:55;;;;;;;;;;;;;;;;;;10206045;28;19923;-82
2023/12/09 14:55:55;;;;;;;;;;;;;;;;;;10157303;29;19937;-82
2023/12/09 15:01:01;;;;;;;;;;;;;;;;;;10193434;29;19951;-84
2023/12/09 15:06:01;;;;;;;;;;;;;;;;;;10201335;29;19930;-83
2023/12/09 15:11:08;;;;;;;;;;;;;;;;;;10180300;28;19938;-81
2023/12/09 15:16:08;;;;;;;;;;;;;;;;;;10178973;29;19931;-83
2023/12/09 15:21:08;;;;;;;;;;;;;;;;;;10206565;28;19929;-83
2023/12/09 15:26:10;;;;;;;;;;;;;;;;;;10212613;28;19922;-83
2023/12/09 15:31:11;;;;;;;;;;;;;;;;;;10251666;28;19923;-83
2023/12/09 15:36:13;;;;;;;;;;;;;;;;;;10266208;28;19945;-86
2023/12/09 15:41:14;;;;;;;;;;;;;;;;;;10245610;28;19974;-83
2023/12/09 15:46:15;;;;;;;;;;;;;;;;;;10259207;28;19957;-83
2023/12/09 15:51:16;;;;;;;;;;;;;;;;;;10279756;28;19920;-83
2023/12/09 15:56:16;;;;;;;;;;;;;;;;;;10281782;28;19986;-82
2023/12/09 16:01:16;;;;;;;;;;;;;;;;;;10278188;28;20005;-80
2023/12/09 16:06:17;;;;;;;;;;;;;;;;;;10291329;28;19927;-81
2023/12/09 16:11:18;;;;;;;;;;;;;;;;;;10268505;28;19974;-80
2023/12/09 16:16:19;;;;;;;;;;;;;;;;;;10257924;28;19944;-81
2023/12/09 16:21:21;;;;;;;;;;;;;;;;;;10248059;28;19954;-84
2023/12/09 16:26:23;;;;;;;;;;;;;;;;;;10237597;28;20156;-83
2023/12/09 16:31:23;;;;;;;;;;;;;;;;;;10223610;28;20388;-85
2023/12/09 16:36:23;;;;;;;;;;;;;;;;;;10232886;28;20045;-83
2023/12/09 16:41:25;;;;;;;;;;;;;;;;;;10248250;28;19922;-86
2023/12/09 16:46:25;;;;;;;;;;;;;;;;;;10239131;28;19989;-85
2023/12/09 16:51:25;;;;;;;;;;;;;;;;;;10208211;28;19969;-86
2023/12/09 16:56:25;;;;;;;;;;;;;;;;;;10224006;28;21740;-82
2023/12/09 17:01:29;;;;;;;;;;;;;;;;;;10221716;28;20108;-83
2023/12/09 17:06:32;;;;;;;;;;;;;;;;;;10212247;28;19988;-85
2023/12/09 17:11:32;;;;;;;;;;;;;;;;;;10215322;28;19923;-83
2023/12/09 17:16:33;;;;;;;;;;;;;;;;;;10244723;28;20040;-84
2023/12/09 17:21:33;;;;;;;;;;;;;;;;;;10236051;28;20463;-83
2023/12/09 17:26:34;;;;;;;;;;;;;;;;;;10248145;28;20053;-82
2023/12/09 17:31:35;;;;;;;;;;;;;;;;;;10263091;23;19929;-84
2023/12/09 17:36:39;;;;;;;;;;;;;;;;;;10372201;28;19959;-83
2023/12/09 17:41:39;;;;;;;;;;;;;;;;;;10356079;28;19926;-84
2023/12/09 17:46:41;;;;;;;;;;;;;;;;;;10369354;28;19963;-85
2023/12/09 17:51:41;;;;;;;;;;;;;;;;;;10355673;28;19924;-83
2023/12/09 17:56:42;;;;;;;;;;;;;;;;;;10313282;28;19941;-83
2023/12/09 18:01:45;;;;;;;;;;;;;;;;;;10319897;28;20048;-83
2023/12/09 18:06:49;;;;;;;;;;;;;;;;;;10320998;28;19994;-80
2023/12/09 18:11:55;;;;;;;;;;;;;;;;;;10344946;28;19922;-83
2023/12/09 18:16:57;;;;;;;;;;;;;;;;;;10305348;28;19936;-81
2023/12/09 18:22:00;;;;;;;;;;;;;;;;;;10340962;28;19953;-84
2023/12/09 18:27:00;;;;;;;;;;;;;;;;;;10325923;28;19918;-81
2023/12/09 18:32:00;;;;;;;;;;;;;;;;;;10312982;28;20342;-83
2023/12/09 18:37:01;;;;;;;;;;;;;;;;;;10296795;28;20425;-83
2023/12/09 18:42:01;;;;;;;;;;;;;;;;;;10339724;28;20345;-82
2023/12/09 18:47:01;;;;;;;;;;;;;;;;;;10256770;28;20446;-81
2023/12/09 18:52:01;;;;;;;;;;;;;;;;;;10321702;28;19921;-84
2023/12/09 18:57:02;;;;;;;;;;;;;;;;;;10342619;28;20337;-83
2023/12/09 19:02:03;;;;;;;;;;;;;;;;;;10291419;28;19926;-81
2023/12/09 19:07:05;;;;;;;;;;;;;;;;;;10336927;28;19949;-83
2023/12/09 19:12:05;;;;;;;;;;;;;;;;;;10361566;28;19921;-82
2023/12/09 19:17:06;;;;;;;;;;;;;;;;;;10338456;28;19930;-81
2023/12/09 19:22:07;;;;;;;;;;;;;;;;;;10345457;28;19906;-81
2023/12/09 19:27:09;;;;;;;;;;;;;;;;;;10345652;28;20072;-80
2023/12/09 19:32:12;;;;;;;;;;;;;;;;;;10317071;28;19930;-81
2023/12/09 19:37:13;;;;;;;;;;;;;;;;;;10313239;28;19930;-80
2023/12/09 19:42:14;;;;;;;;;;;;;;;;;;10297430;28;20681;-82
2023/12/09 19:47:15;;;;;;;;;;;;;;;;;;10298767;28;19918;-81
2023/12/09 19:52:15;;;;;;;;;;;;;;;;;;10285820;28;19973;-81
2023/12/09 19:57:15;;;;;;;;;;;;;;;;;;10257674;28;19930;-81
2023/12/09 20:02:16;;;;;;;;;;;;;;;;;;10310006;28;19922;-81
2023/12/09 20:07:17;;;;;;;;;;;;;;;;;;10306750;28;20081;-82
2023/12/09 20:12:19;;;;;;;;;;;;;;;;;;10305749;28;19962;-83
2023/12/09 20:17:19;;;;;;;;;;;;;;;;;;10346916;28;19914;-82
2023/12/09 20:22:20;;;;;;;;;;;;;;;;;;10341648;28;19989;-80
2023/12/09 20:27:20;;;;;;;;;;;;;;;;;;10338069;28;19932;-82
2023/12/09 20:32:21;;;;;;;;;;;;;;;;;;10352921;28;19933;-83
2023/12/09 20:37:23;;;;;;;;;;;;;;;;;;10355828;28;20037;-82
2023/12/09 20:42:24;;;;;;;;;;;;;;;;;;10329743;28;19918;-79
2023/12/09 20:47:25;;;;;;;;;;;;;;;;;;10317976;28;20422;-83
2023/12/09 20:52:25;;;;;;;;;;;;;;;;;;10303547;28;20341;-83
2023/12/09 20:57:26;;;;;;;;;;;;;;;;;;10292739;28;19945;-84
2023/12/09 21:02:27;;;;;;;;;;;;;;;;;;10307863;28;19926;-82
2023/12/09 21:07:27;;;;;;;;;;;;;;;;;;10307145;28;19922;-86
2023/12/09 21:12:28;;;;;;;;;;;;;;;;;;10299721;28;20402;-83
2023/12/09 21:17:28;;;;;;;;;;;;;;;;;;10317521;28;19930;-82
2023/12/09 21:22:28;;;;;;;;;;;;;;;;;;10318483;28;19921;-83
2023/12/09 21:27:29;;;;;;;;;;;;;;;;;;10322074;28;19966;-83
2023/12/09 21:32:31;;;;;;;;;;;;;;;;;;10335767;28;19931;-81
2023/12/09 21:37:31;;;;;;;;;;;;;;;;;;10355048;28;19914;-84
2023/12/09 21:42:32;;;;;;;;;;;;;;;;;;10329462;28;19952;-83
2023/12/09 21:47:34;;;;;;;;;;;;;;;;;;10359759;28;19906;-82
2023/12/09 21:52:35;;;;;;;;;;;;;;;;;;10350339;28;19917;-82
2023/12/09 21:57:35;;;;;;;;;;;;;;;;;;10296722;28;20390;-84
2023/12/09 22:02:36;;;;;;;;;;;;;;;;;;10319099;28;19921;-84
2023/12/09 22:07:39;;;;;;;;;;;;;;;;;;10303622;28;20021;-86
2023/12/09 22:12:39;;;;;;;;;;;;;;;;;;10284508;28;20045;-84
2023/12/09 22:17:39;;;;;;;;;;;;;;;;;;10291013;28;19934;-83
2023/12/09 22:22:39;;;;;;;;;;;;;;;;;;10297550;28;20020;-82
2023/12/09 22:27:42;;;;;;;;;;;;;;;;;;10293127;28;19921;-81
2023/12/09 22:32:43;;;;;;;;;;;;;;;;;;10282599;28;19928;-81
2023/12/09 22:37:43;;;;;;;;;;;;;;;;;;10296489;28;19930;-83
2023/12/09 22:42:43;;;;;;;;;;;;;;;;;;10281498;28;19992;-82
2023/12/09 22:47:44;;;;;;;;;;;;;;;;;;10310986;28;19937;-82
2023/12/09 22:52:45;;;;;;;;;;;;;;;;;;10264129;28;20116;-83
2023/12/09 22:57:46;;;;;;;;;;;;;;;;;;10287957;28;19979;-80
2023/12/09 23:02:46;;;;;;;;;;;;;;;;;;10297807;28;20549;-81
2023/12/09 23:07:47;;;;;;;;;;;;;;;;;;10301864;28;20518;-80
2023/12/09 23:12:47;;;;;;;;;;;;;;;;;;10302691;28;19925;-80
2023/12/09 23:17:48;;;;;;;;;;;;;;;;;;10294253;28;19933;-81
2023/12/09 23:22:48;;;;;;;;;;;;;;;;;;10309724;28;19961;-81
2023/12/09 23:27:49;;;;;;;;;;;;;;;;;;10306381;28;19932;-81
2023/12/09 23:32:51;;;;;;;;;;;;;;;;;;10300834;28;20393;-81
2023/12/09 23:37:51;;;;;;;;;;;;;;;;;;10307042;28;19934;-81
2023/12/09 23:42:52;;;;;;;;;;;;;;;;;;10294640;28;19925;-81
2023/12/09 23:47:52;;;;;;;;;;;;;;;;;;10308165;28;19980;-81
2023/12/09 23:52:52;;;;;;;;;;;;;;;;;;10307928;28;19921;-80
2023/12/09 23:57:52;;;;;;;;;;;;;;;;;;10316158;28;19961;-82
